createdAt,value
2022-12-19T00:01:04.290Z,17.85
2022-12-19T00:04:10.364Z,19.37
2022-12-19T00:07:13.180Z,17.35
2022-12-19T00:10:16.304Z,22.48
2022-12-19T00:13:18.879Z,19.30
2022-12-19T00:16:27.867Z,16.62
2022-12-19T00:19:30.744Z,16.50
2022-12-19T00:22:33.898Z,16.95
2022-12-19T00:25:36.736Z,17.60
2022-12-19T00:28:47.855Z,17.20
2022-12-19T00:31:50.579Z,21.67
2022-12-19T00:34:53.936Z,18.90
2022-12-19T00:37:56.827Z,18.17
2022-12-19T00:41:11.102Z,17.35
2022-12-19T00:44:14.700Z,16.92
2022-12-19T00:47:17.919Z,17.37
2022-12-19T00:50:21.031Z,16.58
2022-12-19T00:53:24.258Z,17.60
2022-12-19T00:56:36.192Z,20.17
2022-12-19T00:59:42.859Z,18.75
2022-12-19T01:02:45.953Z,18.60
2022-12-19T01:05:51.072Z,18.20
2022-12-19T01:08:55.145Z,17.40
2022-12-19T01:12:17.621Z,16.67
2022-12-19T01:15:21.258Z,17.48
2022-12-19T01:18:25.353Z,16.27
2022-12-19T01:21:28.221Z,16.37
2022-12-19T01:24:31.440Z,16.83
2022-12-19T01:27:34.402Z,17.67
2022-12-19T01:30:40.167Z,17.00
2022-12-19T01:33:43.098Z,14.93
2022-12-19T01:36:48.400Z,14.65
2022-12-19T01:39:51.144Z,18.05
2022-12-19T01:42:54.188Z,22.02
2022-12-19T01:46:06.924Z,20.80
2022-12-19T01:49:32.352Z,20.60
2022-12-19T01:52:35.395Z,22.85
2022-12-19T01:55:40.065Z,21.05
2022-12-19T01:58:46.668Z,22.05
2022-12-19T02:01:53.219Z,22.27
2022-12-19T02:04:57.923Z,21.17
2022-12-19T02:08:01.456Z,21.00
2022-12-19T02:11:05.842Z,19.52
2022-12-19T02:14:10.165Z,20.40
2022-12-19T02:17:53.367Z,19.57
2022-12-19T02:21:15.005Z,19.35
2022-12-19T02:24:33.445Z,20.12
2022-12-19T02:27:53.892Z,20.25
2022-12-19T02:31:17.381Z,19.27
2022-12-19T02:34:59.518Z,19.05
2022-12-19T02:38:12.858Z,18.65
2022-12-19T02:41:27.720Z,19.05
2022-12-19T02:47:47.050Z,17.05
2022-12-19T02:50:50.628Z,17.73
2022-12-19T02:53:53.892Z,17.45
2022-12-19T02:57:24.221Z,16.90
2022-12-19T03:00:34.677Z,16.42
2022-12-19T03:03:51.521Z,16.70
2022-12-19T03:07:09.749Z,17.95
2022-12-19T03:10:27.649Z,17.23
2022-12-19T03:13:59.295Z,19.15
2022-12-19T03:17:05.093Z,17.77
2022-12-19T03:20:21.706Z,17.67
2022-12-19T03:23:24.840Z,17.60
2022-12-19T03:26:36.621Z,14.20
2022-12-19T03:29:44.000Z,15.07
2022-12-19T03:32:47.993Z,19.52
2022-12-19T03:35:52.700Z,19.83
2022-12-19T03:38:56.592Z,20.50
2022-12-19T03:42:19.286Z,19.23
2022-12-19T03:45:27.378Z,18.73
2022-12-19T03:48:51.285Z,19.67
2022-12-19T03:52:04.920Z,20.42
2022-12-19T03:55:33.994Z,18.70
2022-12-19T03:58:39.029Z,19.67
2022-12-19T04:01:43.145Z,20.80
2022-12-19T04:04:51.383Z,20.80
2022-12-19T04:07:56.970Z,20.52
2022-12-19T04:11:05.518Z,20.67
2022-12-19T04:14:12.193Z,21.40
2022-12-19T04:17:35.269Z,19.70
2022-12-19T04:20:41.892Z,19.20
2022-12-19T04:23:52.563Z,20.25
2022-12-19T04:26:56.371Z,17.83
2022-12-19T04:30:00.181Z,17.40
2022-12-19T04:33:03.168Z,17.42
2022-12-19T04:36:06.807Z,14.43
2022-12-19T04:39:09.705Z,16.30
2022-12-19T04:42:12.988Z,17.20
2022-12-19T04:45:16.842Z,16.80
2022-12-19T04:48:21.375Z,17.58
2022-12-19T04:51:24.290Z,16.33
2022-12-19T04:54:28.392Z,16.30
2022-12-19T04:57:32.336Z,18.40
2022-12-19T05:00:35.789Z,22.15
2022-12-19T05:03:38.748Z,23.50
2022-12-19T05:06:42.080Z,21.87
2022-12-19T05:09:45.009Z,23.12
2022-12-19T05:12:48.330Z,21.08
2022-12-19T05:16:04.820Z,17.10
2022-12-19T05:19:08.556Z,15.25
2022-12-19T05:22:12.763Z,16.52
2022-12-19T05:25:16.062Z,17.17
2022-12-19T05:28:20.119Z,16.73
2022-12-19T05:31:23.406Z,16.45
2022-12-19T05:34:26.427Z,17.37
2022-12-19T05:37:29.652Z,17.73
2022-12-19T05:40:32.572Z,16.42
2022-12-19T05:43:35.897Z,21.02
2022-12-19T05:46:39.174Z,20.98
2022-12-19T05:49:42.382Z,20.48
2022-12-19T05:52:45.277Z,18.20
2022-12-19T05:55:48.466Z,18.77
2022-12-19T05:58:51.392Z,21.10
2022-12-19T06:01:55.704Z,20.65
2022-12-19T06:04:59.125Z,20.25
2022-12-19T06:08:02.373Z,17.35
2022-12-19T06:11:07.122Z,17.87
2022-12-19T06:14:10.070Z,18.73
2022-12-19T06:17:13.289Z,17.75
2022-12-19T06:20:16.160Z,17.73
2022-12-19T06:23:19.230Z,17.50
2022-12-19T06:26:22.703Z,16.33
2022-12-19T06:29:25.832Z,16.35
2022-12-19T06:32:30.479Z,18.60
2022-12-19T06:35:46.693Z,20.05
2022-12-19T06:38:52.156Z,17.73
2022-12-19T06:42:15.146Z,16.70
2022-12-19T06:45:18.679Z,15.75
2022-12-19T06:48:21.910Z,14.73
2022-12-19T06:51:24.812Z,14.18
2022-12-19T06:54:28.311Z,13.32
2022-12-19T06:57:31.205Z,13.38
2022-12-19T07:00:37.221Z,14.70
2022-12-19T07:03:41.226Z,13.27
2022-12-19T07:06:49.015Z,14.13
2022-12-19T07:09:52.161Z,13.88
2022-12-19T07:12:55.529Z,13.70
2022-12-19T07:16:01.329Z,14.13
2022-12-19T07:19:05.264Z,15.52
2022-12-19T07:22:09.774Z,14.02
2022-12-19T07:25:13.083Z,13.98
2022-12-19T07:28:17.013Z,11.77
2022-12-19T07:31:20.324Z,12.98
2022-12-19T07:34:23.289Z,13.23
2022-12-19T07:37:26.537Z,15.07
2022-12-19T07:40:29.480Z,15.02
2022-12-19T07:43:32.661Z,16.50
2022-12-19T07:46:35.899Z,15.70
2022-12-19T07:49:39.090Z,17.48
2022-12-19T07:52:42.463Z,16.27
2022-12-19T07:55:45.713Z,17.95
2022-12-19T07:58:48.660Z,18.87
2022-12-19T08:01:52.422Z,19.05
2022-12-19T08:04:55.770Z,18.55
2022-12-19T08:07:58.943Z,20.58
2022-12-19T08:11:22.395Z,19.20
2022-12-19T08:14:25.363Z,19.77
2022-12-19T08:17:28.726Z,18.48
2022-12-19T08:20:31.703Z,14.90
2022-12-19T08:23:34.999Z,13.77
2022-12-19T08:26:41.839Z,14.52
2022-12-19T08:29:47.390Z,14.18
2022-12-19T08:32:50.363Z,12.57
2022-12-19T08:35:54.249Z,13.57
2022-12-19T08:38:57.543Z,13.15
2022-12-19T08:42:01.356Z,12.98
2022-12-19T08:45:05.022Z,12.63
2022-12-19T08:48:21.117Z,13.48
2022-12-19T08:51:24.614Z,12.20
2022-12-19T08:54:27.831Z,11.32
2022-12-19T08:57:30.799Z,10.68
2022-12-19T09:00:34.140Z,12.52
2022-12-19T09:03:44.061Z,11.80
2022-12-19T09:07:00.678Z,11.40
2022-12-19T09:10:04.301Z,11.85
2022-12-19T09:13:08.942Z,11.98
2022-12-19T09:16:20.902Z,11.35
2022-12-19T09:19:24.099Z,12.18
2022-12-19T09:22:27.783Z,12.00
2022-12-19T09:25:32.890Z,11.75
2022-12-19T09:28:36.661Z,10.52
2022-12-19T09:31:40.251Z,11.12
2022-12-19T09:34:43.168Z,12.55
2022-12-19T09:37:46.323Z,11.57
2022-12-19T09:41:07.655Z,11.52
2022-12-19T09:44:30.125Z,10.10
2022-12-19T09:47:34.327Z,10.93
2022-12-19T09:51:10.653Z,12.57
2022-12-19T09:57:40.175Z,11.68
2022-12-19T10:00:48.728Z,11.38
2022-12-19T10:04:04.005Z,10.75
2022-12-19T10:07:31.491Z,12.50
2022-12-19T10:12:37.533Z,13.52
2022-12-19T10:14:47.230Z,13.55
2022-12-19T10:18:16.645Z,11.35
2022-12-19T10:21:59.065Z,13.88
2022-12-19T10:25:09.413Z,12.32
2022-12-19T10:28:36.026Z,12.65
2022-12-19T10:31:59.859Z,10.98
2022-12-19T10:35:05.598Z,11.65
2022-12-19T10:38:23.103Z,12.73
2022-12-19T10:41:32.619Z,12.85
2022-12-19T10:44:38.845Z,12.10
2022-12-19T10:47:43.949Z,12.23
2022-12-19T10:53:59.622Z,11.65
2022-12-19T10:57:24.164Z,12.27
2022-12-19T11:00:28.231Z,12.20
2022-12-19T11:03:37.366Z,11.32
2022-12-19T11:06:57.056Z,11.82
2022-12-19T11:10:36.855Z,11.45
2022-12-19T11:19:02.518Z,12.40
2022-12-19T11:23:55.952Z,12.55
2022-12-19T11:29:25.901Z,12.57
2022-12-19T11:29:40.718Z,12.18
2022-12-19T11:29:54.359Z,11.85
2022-12-19T11:34:49.662Z,11.40
2022-12-19T11:38:00.361Z,12.20
2022-12-19T11:41:15.231Z,11.95
2022-12-19T11:44:27.948Z,12.73
2022-12-19T11:47:53.521Z,12.30
2022-12-19T11:51:32.403Z,13.48
2022-12-19T11:54:41.873Z,12.77
2022-12-19T11:57:45.835Z,12.27
2022-12-19T12:01:05.991Z,12.65
2022-12-19T12:04:40.653Z,12.82
2022-12-19T12:09:46.155Z,12.93
2022-12-19T12:16:13.436Z,13.05
2022-12-19T12:26:33.538Z,14.23
2022-12-19T12:31:20.310Z,12.60
2022-12-19T12:31:26.087Z,13.70
2022-12-19T12:31:43.406Z,13.55
2022-12-19T12:31:51.872Z,15.98
2022-12-19T12:35:41.443Z,14.18
2022-12-19T12:41:02.119Z,14.73
2022-12-19T12:44:10.349Z,15.07
2022-12-19T12:47:39.813Z,14.15
2022-12-19T12:50:42.842Z,14.60
2022-12-19T12:53:47.237Z,15.57
2022-12-19T12:56:50.103Z,15.55
2022-12-19T13:00:19.394Z,16.15
2022-12-19T13:03:25.298Z,15.93
2022-12-19T13:06:41.997Z,14.45
2022-12-19T13:09:45.861Z,14.98
2022-12-19T13:12:59.994Z,15.25
2022-12-19T13:16:41.230Z,13.65
2022-12-19T13:19:54.817Z,13.90
2022-12-19T13:23:00.403Z,13.60
2022-12-19T13:26:04.039Z,15.77
2022-12-19T13:29:59.180Z,15.05
2022-12-19T13:33:02.255Z,15.20
2022-12-19T13:38:47.798Z,14.02
2022-12-19T13:40:11.050Z,13.93
2022-12-19T13:43:49.041Z,14.82
2022-12-19T13:46:52.258Z,15.57
2022-12-19T13:49:55.991Z,14.00
2022-12-19T13:52:59.499Z,14.32
2022-12-19T13:56:05.557Z,14.43
2022-12-19T13:59:09.897Z,14.70
2022-12-19T14:02:28.225Z,14.60
2022-12-19T14:06:15.001Z,14.85
2022-12-19T14:10:24.026Z,13.00
2022-12-19T14:13:43.628Z,13.00
2022-12-19T14:16:17.513Z,12.50
2022-12-19T14:19:29.036Z,13.25
2022-12-19T14:22:32.777Z,14.13
2022-12-19T14:28:20.708Z,12.75
2022-12-19T14:30:28.908Z,11.73
2022-12-19T14:33:46.086Z,13.27
2022-12-19T14:36:27.132Z,13.38
2022-12-19T14:39:35.665Z,12.63
2022-12-19T14:43:59.410Z,12.27
2022-12-19T14:52:35.169Z,10.95
2022-12-19T14:54:24.478Z,12.98
2022-12-19T14:54:47.598Z,12.75
2022-12-19T14:57:01.563Z,11.80
2022-12-19T15:01:07.516Z,12.68
2022-12-19T15:04:49.607Z,12.55
2022-12-19T15:07:25.869Z,12.73
2022-12-19T15:11:03.942Z,12.75
2022-12-19T15:14:53.359Z,13.40
2022-12-19T15:17:24.636Z,13.40
2022-12-19T15:20:27.601Z,14.02
2022-12-19T15:23:32.868Z,12.32
2022-12-19T15:29:49.863Z,12.00
2022-12-19T15:32:53.367Z,11.98
2022-12-19T15:35:56.247Z,12.40
2022-12-19T15:39:00.325Z,13.68
2022-12-19T15:42:03.645Z,12.02
2022-12-19T15:45:08.142Z,12.40
2022-12-19T15:48:17.167Z,14.20
2022-12-19T15:51:20.330Z,14.40
2022-12-19T15:54:48.643Z,14.35
2022-12-19T15:57:48.648Z,14.20
2022-12-19T16:00:58.150Z,12.48
2022-12-19T16:04:03.560Z,13.15
2022-12-19T16:07:15.063Z,13.25
2022-12-19T16:10:18.504Z,13.90
2022-12-19T16:13:27.595Z,12.88
2022-12-19T16:16:30.857Z,13.65
2022-12-19T16:19:33.903Z,14.35
2022-12-19T16:22:38.918Z,12.80
2022-12-19T16:25:52.014Z,12.68
2022-12-19T16:28:55.260Z,14.32
2022-12-19T16:31:58.347Z,11.98
2022-12-19T16:35:01.572Z,14.00
2022-12-19T16:38:04.522Z,13.90
2022-12-19T16:41:23.927Z,15.38
2022-12-19T16:44:26.874Z,15.40
2022-12-19T16:47:30.132Z,12.95
2022-12-19T16:50:33.407Z,12.45
2022-12-19T16:53:36.647Z,13.95
2022-12-19T16:56:41.926Z,13.30
2022-12-19T16:59:46.509Z,13.90
2022-12-19T17:02:57.552Z,13.23
2022-12-19T17:06:01.367Z,13.48
2022-12-19T17:09:04.053Z,13.48
2022-12-19T17:12:10.050Z,13.07
2022-12-19T17:15:29.637Z,14.68
2022-12-19T17:18:35.373Z,13.62
2022-12-19T17:24:46.801Z,13.52
2022-12-19T17:27:52.129Z,13.45
2022-12-19T17:30:57.930Z,12.85
2022-12-19T17:37:05.457Z,12.73
2022-12-19T17:40:16.856Z,12.57
2022-12-19T17:43:20.822Z,12.98
2022-12-19T17:46:25.863Z,11.80
2022-12-19T17:52:37.122Z,12.25
2022-12-19T17:55:40.301Z,13.38
2022-12-19T17:58:44.966Z,12.25
2022-12-19T18:01:48.413Z,12.73
2022-12-19T18:04:52.703Z,13.68
2022-12-19T18:07:55.984Z,14.00
2022-12-19T18:11:02.276Z,13.68
2022-12-19T18:14:05.117Z,15.43
2022-12-19T18:17:12.388Z,14.77
2022-12-19T18:20:31.799Z,14.57
2022-12-19T18:23:35.758Z,15.13
2022-12-19T18:26:39.966Z,14.98
2022-12-19T18:29:43.251Z,14.10
2022-12-19T18:32:55.625Z,13.95
2022-12-19T18:35:59.233Z,14.02
2022-12-19T18:39:02.244Z,14.65
2022-12-19T18:42:19.695Z,14.32
2022-12-19T18:45:26.715Z,14.27
2022-12-19T18:48:33.175Z,15.73
2022-12-19T18:51:37.100Z,15.05
2022-12-19T18:54:40.425Z,14.00
2022-12-19T18:57:45.529Z,11.18
2022-12-19T19:00:51.990Z,14.15
2022-12-19T19:03:59.803Z,14.48
2022-12-19T19:07:02.896Z,14.35
2022-12-19T19:10:35.899Z,13.95
2022-12-19T19:13:40.740Z,14.10
2022-12-19T19:16:44.247Z,14.75
2022-12-19T19:19:47.782Z,12.65
2022-12-19T19:22:54.449Z,14.60
2022-12-19T19:25:58.385Z,14.23
2022-12-19T19:29:03.125Z,13.82
2022-12-19T19:32:06.692Z,14.82
2022-12-19T19:35:11.173Z,13.88
2022-12-19T19:38:17.022Z,14.48
2022-12-19T19:41:21.405Z,14.07
2022-12-19T19:44:26.998Z,14.13
2022-12-19T19:47:32.496Z,13.55
2022-12-19T19:50:36.658Z,14.60
2022-12-19T19:53:40.845Z,13.98
2022-12-19T19:56:44.902Z,13.13
2022-12-19T19:59:49.396Z,13.40
2022-12-19T20:02:53.156Z,11.85
2022-12-19T20:06:01.306Z,12.13
2022-12-19T20:09:13.484Z,12.60
2022-12-19T20:12:18.213Z,12.00
2022-12-19T20:15:21.243Z,13.07
2022-12-19T20:18:24.711Z,13.43
2022-12-19T20:21:29.611Z,12.80
2022-12-19T20:24:32.955Z,13.95
2022-12-19T20:27:36.206Z,13.60
2022-12-19T20:30:39.573Z,13.85
2022-12-19T20:33:42.775Z,13.50
2022-12-19T20:36:46.768Z,14.07
2022-12-19T20:39:49.818Z,14.15
2022-12-19T20:42:52.847Z,17.33
2022-12-19T20:46:04.524Z,15.55
2022-12-19T20:49:09.822Z,15.27
2022-12-19T20:52:13.030Z,16.40
2022-12-19T20:55:16.711Z,15.40
2022-12-19T20:58:19.834Z,15.68
2022-12-19T21:01:24.639Z,15.32
2022-12-19T21:04:28.046Z,14.70
2022-12-19T21:07:32.460Z,15.35
2022-12-19T21:10:35.739Z,14.38
2022-12-19T21:13:39.831Z,15.18
2022-12-19T21:16:42.917Z,13.50
2022-12-19T21:19:46.191Z,15.13
2022-12-19T21:22:49.291Z,14.02
2022-12-19T21:25:53.168Z,15.23
2022-12-19T21:28:58.185Z,15.45
2022-12-19T21:32:01.564Z,15.23
2022-12-19T21:35:05.547Z,15.32
2022-12-19T21:38:09.350Z,15.25
2022-12-19T21:41:12.791Z,14.70
2022-12-19T21:44:15.917Z,15.15
2022-12-19T21:47:18.884Z,15.32
2022-12-19T21:50:22.084Z,14.02
2022-12-19T21:53:25.893Z,15.27
2022-12-19T21:56:34.613Z,14.25
2022-12-19T21:59:37.550Z,15.13
2022-12-19T22:02:50.830Z,15.75
2022-12-19T22:06:04.896Z,14.90
2022-12-19T22:09:10.891Z,16.23
2022-12-19T22:12:14.547Z,15.40
2022-12-19T22:15:17.676Z,16.83
2022-12-19T22:18:20.968Z,14.85
2022-12-19T22:21:24.496Z,17.20
2022-12-19T22:24:28.893Z,16.27
2022-12-19T22:27:31.907Z,15.88
2022-12-19T22:30:36.107Z,16.50
2022-12-19T22:33:39.123Z,15.80
2022-12-19T22:36:44.403Z,14.10
2022-12-19T22:39:47.431Z,17.23
2022-12-19T22:42:52.271Z,15.70
2022-12-19T22:45:55.635Z,16.98
2022-12-19T22:49:01.676Z,16.87
2022-12-19T22:52:04.877Z,16.27
2022-12-19T22:55:08.494Z,16.37
2022-12-19T22:58:12.019Z,17.85
2022-12-19T23:01:26.593Z,16.92
2022-12-19T23:07:35.655Z,16.33
2022-12-19T23:10:38.722Z,15.73
2022-12-19T23:13:42.555Z,15.68
2022-12-19T23:16:45.717Z,16.23
2022-12-19T23:19:49.129Z,15.90
2022-12-19T23:22:52.547Z,15.57
2022-12-19T23:25:55.899Z,16.08
2022-12-19T23:29:01.490Z,16.27
2022-12-19T23:32:05.066Z,17.60
2022-12-19T23:35:08.472Z,17.37
2022-12-19T23:38:12.051Z,17.10
2022-12-19T23:41:16.179Z,18.45
2022-12-19T23:44:19.777Z,18.73
2022-12-19T23:47:23.518Z,18.83
2022-12-19T23:50:26.803Z,17.65
2022-12-19T23:53:30.793Z,18.30
2022-12-19T23:56:35.396Z,17.60
2022-12-19T23:59:38.249Z,18.27
